Time;durP1;ratioP1;P1;durP2;ratioP2;P2;SDS_P1;SDS_P2;PMS_P1;PMS_P2;Temp;Humidity;BMP_temperature;BMP_pressure;BME280_temperature;BME280_humidity;BME280_pressure;Samples;Min_cycle;Max_cycle;Signal;HPM_P1;HPM_P2
2021/06/23 00:02:18;;;;;;;11.17;5.33;;;14.50;99.90;;;;;;5087973;28;20200;-75
2021/06/23 00:04:44;;;;;;;10.67;5.30;;;14.60;99.90;;;;;;5086662;28;20572;-75
2021/06/23 00:07:12;;;;;;;8.63;5.33;;;14.40;99.90;;;;;;5084614;28;20216;-75
2021/06/23 00:09:40;;;;;;;12.37;5.27;;;14.30;99.90;;;;;;5081991;28;20194;-74
2021/06/23 00:12:14;;;;;;;11.93;5.27;;;14.40;99.90;;;;;;5084082;28;20206;-75
2021/06/23 00:14:41;;;;;;;8.57;5.23;;;14.50;99.90;;;;;;5093597;28;20192;-74
2021/06/23 00:17:09;;;;;;;9.57;5.43;;;14.40;99.90;;;;;;5081059;28;20199;-75
2021/06/23 00:19:36;;;;;;;9.73;5.50;;;14.40;99.90;;;;;;5088982;28;20559;-75
2021/06/23 00:22:03;;;;;;;10.93;5.23;;;14.40;99.90;;;;;;5082419;28;20260;-75
2021/06/23 00:24:30;;;;;;;9.90;5.13;;;14.30;99.90;;;;;;5084364;28;20566;-75
2021/06/23 00:26:58;;;;;;;10.87;5.27;;;14.30;99.90;;;;;;5084592;28;20202;-75
2021/06/23 00:29:25;;;;;;;12.93;5.10;;;14.30;99.90;;;;;;5089795;28;21824;-75
2021/06/23 00:31:52;;;;;;;10.50;5.07;;;14.30;99.90;;;;;;5094878;28;20288;-75
2021/06/23 00:34:23;;;;;;;10.27;5.10;;;14.20;99.90;;;;;;5084806;28;20312;-75
2021/06/23 00:36:50;;;;;;;9.10;4.80;;;14.30;99.90;;;;;;5083172;28;20217;-75
2021/06/23 00:39:17;;;;;;;11.00;5.33;;;14.30;99.90;;;;;;5082647;28;20197;-75
2021/06/23 00:41:44;;;;;;;11.83;5.50;;;14.30;99.90;;;;;;5080783;28;20212;-75
2021/06/23 00:44:14;;;;;;;8.50;4.70;;;14.30;99.90;;;;;;5086119;28;20695;-75
2021/06/23 00:46:41;;;;;;;11.17;4.90;;;14.50;99.90;;;;;;5083672;28;20202;-75
2021/06/23 00:49:09;;;;;;;13.50;5.20;;;14.60;99.90;;;;;;5090708;28;20633;-76
2021/06/23 00:51:36;;;;;;;9.30;5.07;;;14.50;99.90;;;;;;5084023;28;20209;-75
2021/06/23 00:54:08;;;;;;;7.70;4.53;;;14.30;99.90;;;;;;5084440;28;20217;-75
2021/06/23 00:56:35;;;;;;;10.17;5.23;;;14.50;99.90;;;;;;5087044;28;20227;-75
2021/06/23 00:59:03;;;;;;;10.97;5.43;;;14.40;99.90;;;;;;5098117;28;20539;-75
2021/06/23 01:01:32;;;;;;;12.83;5.13;;;14.40;99.90;;;;;;5093701;28;20241;-75
2021/06/23 01:04:00;;;;;;;12.80;5.40;;;14.50;99.90;;;;;;5096818;28;20204;-75
2021/06/23 01:06:28;;;;;;;10.50;4.90;;;14.50;99.90;;;;;;5097196;28;20213;-75
2021/06/23 01:08:55;;;;;;;9.23;5.23;;;14.60;99.90;;;;;;5094787;28;20202;-75
2021/06/23 01:11:22;;;;;;;10.77;5.20;;;14.50;99.90;;;;;;5097090;28;20296;-75
2021/06/23 01:13:58;;;;;;;11.10;5.20;;;14.60;99.90;;;;;;5096525;28;20217;-75
2021/06/23 01:16:27;;;;;;;12.00;5.20;;;14.50;99.90;;;;;;5094319;28;20212;-75
2021/06/23 01:18:56;;;;;;;11.10;5.47;;;14.40;99.90;;;;;;5092220;28;20253;-75
2021/06/23 01:21:23;;;;;;;8.77;5.47;;;14.40;99.90;;;;;;5094883;28;20197;-75
2021/06/23 01:23:51;;;;;;;11.47;5.50;;;14.30;99.90;;;;;;5096546;28;20475;-76
2021/06/23 01:26:18;;;;;;;10.90;5.20;;;14.30;99.90;;;;;;5093632;28;20197;-75
2021/06/23 01:28:45;;;;;;;10.47;5.30;;;14.20;99.90;;;;;;5090519;28;20202;-76
2021/06/23 01:31:14;;;;;;;9.73;5.47;;;14.30;99.90;;;;;;5095019;28;20728;-76
2021/06/23 01:33:42;;;;;;;13.00;6.23;;;14.30;99.90;;;;;;5097285;28;20220;-75
2021/06/23 01:36:09;;;;;;;7.10;5.17;;;14.20;99.90;;;;;;5097431;28;20203;-75
2021/06/23 01:38:35;;;;;;;10.70;5.37;;;14.30;99.90;;;;;;5096177;28;20203;-75
2021/06/23 01:41:04;;;;;;;9.17;5.60;;;14.30;99.90;;;;;;5083366;28;20202;-75
2021/06/23 01:43:31;;;;;;;11.73;5.00;;;14.20;99.90;;;;;;5095016;28;20198;-75
2021/06/23 01:45:58;;;;;;;12.07;5.40;;;14.30;99.90;;;;;;5094580;28;20198;-75
2021/06/23 01:48:27;;;;;;;8.57;5.30;;;14.30;99.90;;;;;;5099965;28;20197;-75
2021/06/23 01:50:55;;;;;;;14.03;5.60;;;14.30;99.90;;;;;;5097570;28;20201;-75
2021/06/23 01:53:22;;;;;;;14.00;5.53;;;14.40;99.90;;;;;;5096000;28;20217;-75
2021/06/23 01:55:50;;;;;;;10.37;5.60;;;14.40;99.90;;;;;;5096831;28;20194;-75
2021/06/23 01:58:19;;;;;;;12.57;5.23;;;14.20;99.90;;;;;;5096128;28;20212;-75
2021/06/23 02:00:53;;;;;;;17.20;6.00;;;14.20;99.90;;;;;;5096916;28;20201;-76
2021/06/23 02:03:35;;;;;;;11.70;5.57;;;14.20;99.90;;;;;;5089641;28;20194;-74
2021/06/23 02:06:05;;;;;;;9.63;4.93;;;14.20;99.90;;;;;;5096974;28;20639;-75
2021/06/23 02:08:50;;;;;;;8.20;5.20;;;14.20;99.90;;;;;;5091257;28;20205;-75
2021/06/23 02:11:34;;;;;;;8.97;5.97;;;14.10;99.90;;;;;;5090850;28;20194;-75
2021/06/23 02:14:28;;;;;;;10.53;5.70;;;14.10;99.90;;;;;;5086877;28;20684;-75
2021/06/23 02:16:56;;;;;;;10.07;5.80;;;14.10;99.90;;;;;;5089707;28;20592;-75
2021/06/23 02:19:23;;;;;;;14.37;5.53;;;14.10;99.90;;;;;;5088990;28;20197;-75
2021/06/23 02:21:51;;;;;;;11.93;5.57;;;14.10;99.90;;;;;;5093943;28;20209;-75
2021/06/23 02:24:18;;;;;;;10.90;5.63;;;14.10;99.90;;;;;;5094544;28;20204;-75
2021/06/23 02:26:45;;;;;;;15.40;5.07;;;14.10;99.90;;;;;;5092620;28;20202;-75
2021/06/23 02:29:14;;;;;;;10.53;5.20;;;14.00;99.90;;;;;;5085379;28;20205;-75
2021/06/23 02:31:41;;;;;;;12.33;5.10;;;14.10;99.90;;;;;;5090968;28;20285;-68
2021/06/23 02:34:10;;;;;;;12.60;5.53;;;14.00;99.90;;;;;;5091403;28;20221;-68
2021/06/23 02:36:38;;;;;;;15.07;6.00;;;14.00;99.90;;;;;;5099971;28;20204;-68
2021/06/23 02:39:06;;;;;;;9.67;5.00;;;13.90;99.90;;;;;;5096587;28;20287;-68
2021/06/23 02:41:33;;;;;;;10.57;5.33;;;14.00;99.90;;;;;;5089781;28;20604;-68
2021/06/23 02:44:00;;;;;;;8.97;5.23;;;14.10;99.90;;;;;;5092641;28;20232;-68
2021/06/23 02:46:29;;;;;;;10.90;5.40;;;14.20;99.90;;;;;;5091852;28;20210;-68
2021/06/23 02:48:58;;;;;;;11.80;5.53;;;14.00;99.90;;;;;;5093945;28;20670;-68
2021/06/23 02:51:26;;;;;;;11.63;5.40;;;14.10;99.90;;;;;;5101197;28;20207;-68
2021/06/23 02:53:55;;;;;;;11.67;5.90;;;14.00;99.90;;;;;;5096307;28;20221;-69
2021/06/23 02:56:22;;;;;;;14.33;5.97;;;14.10;99.90;;;;;;5093482;28;20313;-68
2021/06/23 02:58:51;;;;;;;11.57;5.57;;;14.00;99.90;;;;;;5094195;28;20208;-68
2021/06/23 03:01:18;;;;;;;12.03;5.23;;;14.10;99.90;;;;;;5088177;28;20197;-69
2021/06/23 03:03:48;;;;;;;9.60;5.23;;;14.10;99.90;;;;;;5094180;28;20198;-68
2021/06/23 03:06:15;;;;;;;10.73;5.97;;;14.00;99.90;;;;;;5088172;28;20237;-68
2021/06/23 03:08:42;;;;;;;10.80;5.73;;;14.00;99.90;;;;;;5093894;28;20288;-68
2021/06/23 03:11:09;;;;;;;11.13;6.50;;;14.00;99.90;;;;;;5092077;28;20206;-68
2021/06/23 03:13:36;;;;;;;11.57;6.03;;;13.90;99.90;;;;;;5093556;28;20689;-68
2021/06/23 03:16:04;;;;;;;11.50;5.77;;;14.00;99.90;;;;;;5087561;28;20252;-68
2021/06/23 03:18:32;;;;;;;11.47;5.93;;;14.00;99.90;;;;;;5093531;28;20569;-68
2021/06/23 03:21:01;;;;;;;9.53;5.93;;;14.00;99.90;;;;;;5087620;28;20547;-68
2021/06/23 03:23:28;;;;;;;10.53;6.57;;;13.90;99.90;;;;;;5093302;28;20665;-68
2021/06/23 03:25:56;;;;;;;9.87;6.87;;;14.00;99.90;;;;;;5094889;28;20202;-68
2021/06/23 03:28:23;;;;;;;12.23;7.30;;;13.90;99.90;;;;;;5104943;28;20577;-69
2021/06/23 03:30:50;;;;;;;15.17;7.07;;;14.00;99.90;;;;;;5089503;28;20205;-69
2021/06/23 03:33:17;;;;;;;11.27;6.60;;;14.00;99.90;;;;;;5088896;28;20489;-68
2021/06/23 03:35:44;;;;;;;11.70;6.83;;;14.10;99.90;;;;;;5091095;28;20289;-69
2021/06/23 03:38:12;;;;;;;11.67;6.77;;;14.10;99.90;;;;;;5089918;28;20225;-69
2021/06/23 03:40:39;;;;;;;9.97;6.40;;;14.20;99.90;;;;;;5091557;28;20646;-69
2021/06/23 03:43:06;;;;;;;10.60;5.70;;;14.20;99.90;;;;;;5085663;28;20205;-69
2021/06/23 03:45:33;;;;;;;9.70;6.40;;;14.20;99.90;;;;;;5092967;28;20294;-69
2021/06/23 03:48:00;;;;;;;12.13;6.53;;;14.30;99.90;;;;;;5083860;28;20194;-69
2021/06/23 03:50:29;;;;;;;13.93;7.43;;;14.30;99.90;;;;;;5092695;28;20205;-68
2021/06/23 03:52:56;;;;;;;9.53;6.17;;;14.20;99.90;;;;;;5076843;28;20300;-69
2021/06/23 03:55:26;;;;;;;11.00;6.53;;;14.20;99.90;;;;;;5092797;28;20217;-69
2021/06/23 03:57:55;;;;;;;12.37;6.50;;;14.30;99.90;;;;;;5074724;28;20234;-69
2021/06/23 04:00:24;;;;;;;13.17;6.60;;;14.40;99.90;;;;;;5086398;28;20207;-69
2021/06/23 04:02:52;;;;;;;12.33;6.60;;;14.30;99.90;;;;;;5062172;28;20565;-69
2021/06/23 04:05:19;;;;;;;9.90;5.60;;;14.30;99.90;;;;;;5072247;28;20202;-69
2021/06/23 04:07:46;;;;;;;9.53;6.17;;;14.20;99.90;;;;;;5065619;28;20202;-69
2021/06/23 04:10:13;;;;;;;12.87;6.07;;;14.20;99.90;;;;;;5071767;28;20217;-69
2021/06/23 04:12:42;;;;;;;11.37;6.40;;;14.30;99.90;;;;;;5071741;28;20202;-69
2021/06/23 04:15:11;;;;;;;11.70;6.23;;;14.20;99.90;;;;;;5068901;28;20228;-69
2021/06/23 04:17:38;;;;;;;10.53;6.30;;;14.10;99.90;;;;;;5066387;28;20576;-69
2021/06/23 04:20:07;;;;;;;11.97;6.30;;;14.30;99.90;;;;;;5072120;28;20198;-69
2021/06/23 04:22:33;;;;;;;9.90;6.33;;;14.40;99.90;;;;;;5069422;28;20203;-69
2021/06/23 04:25:00;;;;;;;9.33;5.80;;;14.40;99.90;;;;;;5070381;28;20550;-68
2021/06/23 04:27:27;;;;;;;11.90;6.10;;;14.40;99.90;;;;;;5063507;28;20208;-68
2021/06/23 04:29:56;;;;;;;7.07;5.77;;;14.50;99.90;;;;;;5070898;28;20551;-69
2021/06/23 04:32:23;;;;;;;14.17;6.70;;;14.60;99.90;;;;;;5060042;28;20656;-69
2021/06/23 04:34:50;;;;;;;11.50;5.57;;;14.70;99.90;;;;;;5071202;28;20671;-69
2021/06/23 04:37:16;;;;;;;12.93;5.63;;;14.60;99.90;;;;;;5084439;28;20664;-69
2021/06/23 04:39:43;;;;;;;9.97;5.97;;;14.50;99.90;;;;;;5091905;28;20201;-69
2021/06/23 04:42:10;;;;;;;9.47;6.13;;;14.50;99.90;;;;;;5075760;28;20206;-69
2021/06/23 04:44:37;;;;;;;13.17;6.53;;;14.60;99.90;;;;;;5072143;28;20194;-69
2021/06/23 04:47:06;;;;;;;12.27;5.20;;;14.50;99.90;;;;;;5065741;28;20230;-69
2021/06/23 04:49:32;;;;;;;10.33;6.10;;;14.50;99.90;;;;;;5071041;28;20211;-68
2021/06/23 04:51:59;;;;;;;8.00;5.17;;;14.60;99.90;;;;;;5072461;28;20198;-69
2021/06/23 04:54:26;;;;;;;9.23;6.03;;;14.60;99.90;;;;;;5061757;28;20752;-69
2021/06/23 04:56:53;;;;;;;12.67;6.30;;;14.50;99.90;;;;;;5059925;28;20197;-69
2021/06/23 04:59:20;;;;;;;10.83;5.60;;;14.60;99.90;;;;;;5068960;28;20240;-69
2021/06/23 05:01:47;;;;;;;12.20;5.07;;;14.60;99.90;;;;;;5055865;28;20199;-69
2021/06/23 05:04:15;;;;;;;11.83;4.83;;;14.50;99.90;;;;;;5070128;28;20321;-69
2021/06/23 05:06:42;;;;;;;8.63;4.47;;;14.60;99.90;;;;;;5067381;28;20214;-68
2021/06/23 05:09:08;;;;;;;11.50;5.23;;;14.60;99.90;;;;;;5070161;28;20231;-68
2021/06/23 05:11:35;;;;;;;11.23;5.20;;;14.40;99.90;;;;;;5067421;28;20301;-69
2021/06/23 05:14:02;;;;;;;10.80;5.70;;;14.40;99.90;;;;;;5069420;28;20312;-69
2021/06/23 05:16:30;;;;;;;10.20;5.30;;;14.30;99.90;;;;;;5075763;28;20198;-69
2021/06/23 05:18:58;;;;;;;10.33;5.10;;;14.50;99.90;;;;;;5069803;28;20206;-69
2021/06/23 05:21:27;;;;;;;11.33;4.90;;;14.60;99.90;;;;;;5069134;28;20653;-69
2021/06/23 05:23:54;;;;;;;10.43;4.90;;;14.50;99.90;;;;;;5065792;28;20199;-69
2021/06/23 05:26:20;;;;;;;11.53;4.27;;;14.40;99.90;;;;;;5063996;28;20205;-69
2021/06/23 05:28:47;;;;;;;8.13;5.27;;;14.30;99.90;;;;;;5070134;28;20524;-69
2021/06/23 05:31:14;;;;;;;9.50;5.40;;;14.30;99.90;;;;;;5060836;28;20203;-68
2021/06/23 05:33:41;;;;;;;10.53;5.20;;;14.30;99.90;;;;;;5068765;28;20209;-68
2021/06/23 05:36:08;;;;;;;10.87;5.43;;;14.30;99.90;;;;;;5062783;28;20657;-69
2021/06/23 05:38:36;;;;;;;12.20;4.73;;;14.30;99.90;;;;;;5066934;28;20205;-69
2021/06/23 05:41:03;;;;;;;13.73;5.37;;;14.50;99.90;;;;;;5063432;28;20215;-69
2021/06/23 05:43:30;;;;;;;7.63;4.83;;;14.60;99.90;;;;;;5067793;28;20202;-69
2021/06/23 05:45:57;;;;;;;11.57;5.10;;;14.70;99.90;;;;;;5072660;28;20570;-69
2021/06/23 05:48:23;;;;;;;10.17;5.53;;;14.70;99.90;;;;;;5069193;28;20577;-72
2021/06/23 05:50:51;;;;;;;9.30;4.73;;;14.40;99.90;;;;;;5053871;28;20207;-72
2021/06/23 05:53:17;;;;;;;12.90;4.90;;;14.70;99.90;;;;;;5065682;28;20202;-73
2021/06/23 05:55:46;;;;;;;8.60;4.37;;;14.80;99.90;;;;;;5070780;28;20226;-72
2021/06/23 05:58:12;;;;;;;14.70;4.90;;;14.90;99.90;;;;;;5062167;28;20213;-72
2021/06/23 06:00:39;;;;;;;12.57;4.37;;;14.80;99.90;;;;;;5072499;28;20206;-73
2021/06/23 06:03:07;;;;;;;8.83;4.40;;;14.80;99.90;;;;;;5073019;28;20206;-72
2021/06/23 06:05:34;;;;;;;13.73;4.73;;;14.70;99.90;;;;;;5072271;28;20297;-72
2021/06/23 06:08:01;;;;;;;10.97;4.90;;;14.70;99.90;;;;;;5072824;28;20199;-72
2021/06/23 06:10:28;;;;;;;11.50;4.50;;;14.60;99.90;;;;;;5067033;28;20232;-72
2021/06/23 06:12:56;;;;;;;9.33;4.23;;;14.60;99.90;;;;;;5058698;28;20198;-72
2021/06/23 06:15:23;;;;;;;9.27;4.10;;;14.80;99.90;;;;;;5067173;28;20222;-73
2021/06/23 06:17:50;;;;;;;9.43;5.33;;;14.60;99.90;;;;;;5072818;28;20715;-73
2021/06/23 06:20:17;;;;;;;12.47;5.13;;;14.70;99.90;;;;;;5066361;28;20652;-72
2021/06/23 06:22:43;;;;;;;12.63;4.33;;;14.70;99.90;;;;;;5072870;28;20209;-73
2021/06/23 06:25:11;;;;;;;8.07;4.07;;;14.70;99.90;;;;;;5071891;28;20332;-73
2021/06/23 06:27:38;;;;;;;9.27;4.20;;;14.80;99.90;;;;;;5072320;28;20210;-72
2021/06/23 06:30:08;;;;;;;9.67;4.17;;;14.80;99.90;;;;;;5061801;28;20558;-72
2021/06/23 06:32:35;;;;;;;7.30;3.83;;;15.00;99.90;;;;;;5072463;28;20212;-73
2021/06/23 06:35:01;;;;;;;8.37;3.87;;;15.00;99.90;;;;;;5061676;28;20317;-73
2021/06/23 06:37:28;;;;;;;10.70;4.20;;;15.20;99.90;;;;;;5072407;28;20581;-72
2021/06/23 06:39:55;;;;;;;8.27;4.27;;;15.10;99.90;;;;;;5071477;28;20207;-73
2021/06/23 06:42:22;;;;;;;8.57;4.00;;;15.20;99.90;;;;;;5072188;28;20292;-73
2021/06/23 06:44:49;;;;;;;8.30;3.77;;;15.30;99.90;;;;;;5062458;28;20203;-72
2021/06/23 06:47:17;;;;;;;9.47;3.93;;;15.40;99.90;;;;;;5070819;28;20201;-72
2021/06/23 06:49:44;;;;;;;9.20;3.70;;;15.50;99.90;;;;;;5073400;28;20671;-72
2021/06/23 06:52:11;;;;;;;11.40;3.70;;;15.60;99.90;;;;;;5070808;28;20206;-73
2021/06/23 06:54:38;;;;;;;8.93;3.23;;;15.40;99.90;;;;;;5069936;28;20225;-73
2021/06/23 06:57:05;;;;;;;7.57;3.80;;;15.30;99.90;;;;;;5071947;28;20228;-73
2021/06/23 06:59:35;;;;;;;11.80;3.57;;;15.20;99.90;;;;;;5070422;28;20205;-72
2021/06/23 07:02:02;;;;;;;10.77;3.73;;;15.10;99.90;;;;;;5071223;28;20206;-73
2021/06/23 07:04:30;;;;;;;9.77;4.00;;;15.10;99.90;;;;;;5068348;28;20195;-72
2021/06/23 07:06:57;;;;;;;11.53;3.80;;;15.20;99.90;;;;;;5071544;28;20210;-72
2021/06/23 07:09:24;;;;;;;9.57;3.27;;;15.20;99.90;;;;;;5068118;28;20651;-73
2021/06/23 07:11:51;;;;;;;11.97;3.37;;;15.20;99.90;;;;;;5071551;28;20251;-73
2021/06/23 07:14:20;;;;;;;10.40;3.63;;;15.30;99.90;;;;;;5059209;28;20213;-73
2021/06/23 07:16:47;;;;;;;9.90;4.20;;;15.40;99.90;;;;;;5062178;28;20230;-72
2021/06/23 07:19:14;;;;;;;13.27;3.23;;;15.50;99.90;;;;;;5071229;28;20206;-72
2021/06/23 07:21:42;;;;;;;7.23;3.30;;;15.20;99.90;;;;;;5069342;28;20580;-73
2021/06/23 07:24:09;;;;;;;7.70;3.30;;;15.30;99.90;;;;;;5067067;28;20202;-72
2021/06/23 07:26:36;;;;;;;7.43;3.10;;;15.30;99.90;;;;;;5067167;28;20589;-71
2021/06/23 07:29:06;;;;;;;7.97;3.07;;;15.60;99.90;;;;;;5064218;28;20206;-71
2021/06/23 07:31:41;;;;;;;12.47;4.07;;;15.80;99.90;;;;;;5069757;28;20199;-73
2021/06/23 07:34:35;;;;;;;9.53;3.07;;;16.00;99.90;;;;;;5070927;28;20678;-71
2021/06/23 07:37:05;;;;;;;10.43;3.50;;;16.20;99.90;;;;;;5071133;28;20424;-71
2021/06/23 07:39:34;;;;;;;7.13;3.50;;;16.00;99.90;;;;;;5070737;28;20683;-71
2021/06/23 07:42:01;;;;;;;9.33;3.50;;;16.10;99.90;;;;;;5070923;28;20202;-71
2021/06/23 07:44:30;;;;;;;7.23;3.73;;;16.10;99.90;;;;;;5068308;28;20218;-71
2021/06/23 07:46:59;;;;;;;5.97;3.23;;;16.10;99.90;;;;;;5070688;28;20203;-71
2021/06/23 07:49:29;;;;;;;7.37;3.17;;;16.10;99.90;;;;;;5070695;28;20297;-71
2021/06/23 07:51:59;;;;;;;8.20;3.30;;;16.00;99.90;;;;;;5069126;28;20607;-71
2021/06/23 07:54:43;;;;;;;10.70;3.42;;;16.20;99.90;;;;;;5071045;28;20211;-71
2021/06/23 08:08:24;;;;;;;10.00;3.40;;;16.40;99.90;;;;;;5082441;23;20284;-89
2021/06/23 08:10:54;;;;;;;8.17;3.27;;;16.60;99.90;;;;;;5061648;28;20227;-89
2021/06/23 08:13:22;;;;;;;9.57;3.50;;;16.30;99.90;;;;;;5061609;28;20207;-88
2021/06/23 08:15:50;;;;;;;10.13;3.72;;;16.30;99.90;;;;;;5058349;28;20222;-88
2021/06/23 08:18:20;;;;;;;9.90;3.10;;;16.40;99.90;;;;;;5055380;28;20219;-90
2021/06/23 08:20:47;;;;;;;9.13;3.53;;;16.20;99.90;;;;;;5058928;28;20228;-89
2021/06/23 08:23:15;;;;;;;10.53;3.90;;;16.00;99.90;;;;;;5050119;28;20211;-90
2021/06/23 08:25:41;;;;;;;6.97;3.17;;;16.10;99.90;;;;;;5062053;28;20678;-88
2021/06/23 08:28:10;;;;;;;8.17;3.53;;;16.30;99.90;;;;;;5063060;28;20264;-87
2021/06/23 08:30:37;;;;;;;9.90;3.40;;;16.70;99.90;;;;;;5050265;28;20676;-89
2021/06/23 08:33:04;;;;;;;10.93;3.55;;;16.60;99.90;;;;;;5060130;28;20768;-90
2021/06/23 08:35:31;;;;;;;13.65;3.33;;;17.00;99.90;;;;;;5055163;28;20227;-88
2021/06/23 08:37:58;;;;;;;11.57;3.40;;;16.80;99.90;;;;;;5048565;28;20309;-89
2021/06/23 08:40:25;;;;;;;7.60;3.22;;;16.60;99.90;;;;;;5052951;28;20297;-89
2021/06/23 08:42:52;;;;;;;6.53;2.93;;;16.50;99.90;;;;;;5051000;28;20307;-87
2021/06/23 08:45:21;;;;;;;7.13;3.20;;;16.90;99.90;;;;;;5052215;28;20239;-88
2021/06/23 08:47:50;;;;;;;9.55;3.97;;;17.20;99.90;;;;;;5053889;28;20702;-88
2021/06/23 08:50:19;;;;;;;8.73;4.13;;;17.00;99.90;;;;;;5045800;28;20199;-89
2021/06/23 08:52:46;;;;;;;9.70;2.90;;;17.00;99.90;;;;;;5046993;28;20207;-88
2021/06/23 08:55:18;;;;;;;10.88;3.25;;;17.20;99.90;;;;;;5058535;28;20227;-88
2021/06/23 08:57:46;;;;;;;8.32;3.53;;;17.50;99.90;;;;;;5061708;28;20245;-88
2021/06/23 09:00:13;;;;;;;9.57;3.50;;;17.40;99.90;;;;;;5046619;28;20226;-87
2021/06/23 09:02:42;;;;;;;7.47;3.25;;;17.60;99.90;;;;;;5052244;28;20207;-87
2021/06/23 09:05:11;;;;;;;13.05;3.72;;;17.90;99.90;;;;;;5060035;28;20245;-88
2021/06/23 09:07:41;;;;;;;8.75;3.30;;;18.00;99.90;;;;;;5061149;28;20593;-87
2021/06/23 09:10:33;;;;;;;8.82;3.47;;;17.80;99.90;;;;;;5049644;28;20214;-89
2021/06/23 09:13:27;;;;;;;7.93;2.83;;;17.90;99.90;;;;;;5053666;28;20239;-89
2021/06/23 09:15:58;;;;;;;8.35;3.53;;;18.20;99.90;;;;;;5030630;28;20248;-88
2021/06/23 09:18:28;;;;;;;10.93;3.22;;;18.20;99.90;;;;;;5062850;28;20241;-89
2021/06/23 09:20:59;;;;;;;8.85;3.30;;;18.20;99.90;;;;;;5053879;28;20361;-89
2021/06/23 09:23:40;;;;;;;7.60;2.97;;;18.10;99.90;;;;;;5062119;28;20218;-86
2021/06/23 09:26:26;;;;;;;9.15;2.97;;;18.00;99.90;;;;;;5058846;28;20286;-88
2021/06/23 09:29:08;;;;;;;8.77;3.75;;;18.00;99.90;;;;;;5053948;28;20215;-88
2021/06/23 09:31:51;;;;;;;12.45;4.22;;;17.80;99.90;;;;;;5058536;28;20392;-90
2021/06/23 09:34:24;;;;;;;10.85;3.78;;;18.10;99.90;;;;;;5063477;28;20251;-88
2021/06/23 09:36:51;;;;;;;12.18;4.10;;;18.00;99.90;;;;;;5055183;28;20226;-88
2021/06/23 09:39:22;;;;;;;10.07;3.90;;;18.20;99.90;;;;;;5057188;28;20490;-87
2021/06/23 09:41:51;;;;;;;10.75;4.13;;;18.20;99.90;;;;;;5059681;28;20203;-90
2021/06/23 09:44:19;;;;;;;9.82;3.70;;;18.30;99.90;;;;;;5054835;28;20238;-89
2021/06/23 09:46:48;;;;;;;10.05;3.80;;;18.80;99.90;;;;;;5060407;28;20222;-89
2021/06/23 09:49:17;;;;;;;10.88;3.38;;;18.90;99.90;;;;;;5051017;28;20682;-91
2021/06/23 09:51:48;;;;;;;11.07;3.45;;;19.20;99.90;;;;;;5056817;28;20212;-89
2021/06/23 09:54:17;;;;;;;9.27;4.22;;;18.60;99.90;;;;;;5054093;28;20918;-88
2021/06/23 09:56:45;;;;;;;7.78;4.05;;;18.60;99.90;;;;;;5054195;28;20229;-87
2021/06/23 09:59:25;;;;;;;11.70;4.53;;;18.60;99.90;;;;;;5067925;28;20637;-89
2021/06/23 10:01:52;;;;;;;10.50;3.75;;;18.50;99.90;;;;;;5055341;28;20676;-88
2021/06/23 10:04:19;;;;;;;10.93;3.70;;;19.00;99.90;;;;;;5060950;28;20234;-90
2021/06/23 10:06:48;;;;;;;9.35;3.63;;;19.60;99.90;;;;;;5052405;28;20251;-88
2021/06/23 10:09:20;;;;;;;16.15;4.78;;;19.60;99.90;;;;;;5063847;28;20214;-88
2021/06/23 10:11:49;;;;;;;11.30;3.83;;;19.70;99.90;;;;;;5052460;28;20202;-89
2021/06/23 10:14:16;;;;;;;10.20;3.92;;;19.30;99.90;;;;;;5065135;28;20287;-88
2021/06/23 10:16:44;;;;;;;10.40;4.40;;;19.40;99.90;;;;;;5050094;28;20712;-88
2021/06/23 10:19:11;;;;;;;11.50;4.68;;;19.60;99.90;;;;;;5049181;28;20270;-88
2021/06/23 10:21:39;;;;;;;10.57;3.67;;;19.60;99.90;;;;;;5050342;28;20195;-89
2021/06/23 10:24:12;;;;;;;9.80;3.80;;;20.10;99.90;;;;;;5051591;28;20432;-88
2021/06/23 10:26:43;;;;;;;6.60;3.75;;;20.20;99.90;;;;;;5053390;28;20223;-89
2021/06/23 10:29:13;;;;;;;7.93;4.28;;;19.60;99.90;;;;;;5049653;28;20294;-87
2021/06/23 10:31:41;;;;;;;9.07;4.00;;;20.60;99.90;;;;;;5048384;28;20206;-90
2021/06/23 10:34:09;;;;;;;9.00;4.35;;;20.70;99.90;;;;;;5055538;28;20879;-89
2021/06/23 10:36:36;;;;;;;13.90;4.40;;;21.10;99.90;;;;;;5055438;28;20285;-89
2021/06/23 10:39:06;;;;;;;9.00;4.82;;;20.80;99.90;;;;;;5055175;28;20221;-88
2021/06/23 10:41:39;;;;;;;8.82;4.72;;;20.30;99.90;;;;;;5071612;28;20225;-88
2021/06/23 10:44:18;;;;;;;11.98;5.35;;;20.30;99.90;;;;;;5052212;28;21032;-87
2021/06/23 10:46:46;;;;;;;9.25;4.97;;;20.10;99.90;;;;;;5051276;28;20299;-88
2021/06/23 10:49:18;;;;;;;10.55;5.63;;;19.70;99.90;;;;;;5056153;28;20215;-89
2021/06/23 10:51:47;;;;;;;10.57;5.28;;;19.80;99.90;;;;;;5069705;28;20214;-88
2021/06/23 10:54:36;;;;;;;14.63;5.85;;;20.00;99.90;;;;;;5050559;28;20218;-88
2021/06/23 10:57:24;;;;;;;12.55;5.80;;;20.70;99.90;;;;;;5053186;28;20311;-87
2021/06/23 10:59:51;;;;;;;14.48;5.72;;;20.60;99.90;;;;;;5056023;28;20212;-88
2021/06/23 11:02:18;;;;;;;7.07;5.45;;;20.30;99.90;;;;;;5056041;28;20298;-88
2021/06/23 11:05:06;;;;;;;11.60;5.80;;;20.30;99.90;;;;;;5051732;28;20275;-87
2021/06/23 11:07:38;;;;;;;13.90;5.80;;;20.40;99.90;;;;;;5047946;28;20223;-90
2021/06/23 11:10:34;;;;;;;9.52;4.50;;;20.40;99.90;;;;;;5054095;28;20210;-88
2021/06/23 11:13:04;;;;;;;9.90;4.82;;;20.90;99.90;;;;;;5057788;28;20677;-91
2021/06/23 11:15:41;;;;;;;11.90;4.90;;;20.70;99.90;;;;;;5064403;28;20207;-88
2021/06/23 11:18:34;;;;;;;11.00;5.10;;;21.30;99.90;;;;;;5052233;28;20236;-90
2021/06/23 11:21:03;;;;;;;10.85;4.80;;;21.40;99.90;;;;;;5031386;28;20234;-89
2021/06/23 11:23:51;;;;;;;10.40;4.97;;;21.80;99.90;;;;;;5056532;28;20246;-88
2021/06/23 11:26:52;;;;;;;11.70;5.28;;;22.10;99.90;;;;;;5063392;28;20301;-89
2021/06/23 11:29:46;;;;;;;9.73;4.60;;;21.90;99.90;;;;;;4988181;28;20216;-92
2021/06/23 11:32:14;;;;;;;9.80;5.78;;;21.40;99.90;;;;;;4988298;28;20212;-90
2021/06/23 11:34:59;;;;;;;8.77;5.00;;;21.40;99.90;;;;;;5036182;28;20203;-92
2021/06/23 11:37:35;;;;;;;10.63;4.65;;;21.60;99.90;;;;;;5055956;28;20313;-91
2021/06/23 11:40:27;;;;;;;11.40;5.05;;;22.40;99.90;;;;;;5050039;28;20868;-92
2021/06/23 11:42:56;;;;;;;13.00;5.47;;;22.20;99.90;;;;;;5046639;28;20264;-89
2021/06/23 11:45:24;;;;;;;9.13;5.38;;;21.40;99.90;;;;;;5061226;28;20210;-91
2021/06/23 11:47:54;;;;;;;9.93;4.65;;;21.80;99.90;;;;;;5056836;28;20247;-91
2021/06/23 11:53:06;;;;;;;11.15;4.85;;;21.90;99.90;;;;;;5054125;28;20775;-91
2021/06/23 11:55:33;;;;;;;12.27;7.18;;;22.60;99.90;;;;;;5054285;28;20203;-90
2021/06/23 11:58:02;;;;;;;10.40;5.38;;;22.70;99.90;;;;;;5059515;28;20729;-92
2021/06/23 12:00:31;;;;;;;13.85;6.05;;;22.70;99.90;;;;;;5062638;28;20232;-92
2021/06/23 12:03:00;;;;;;;9.63;6.22;;;22.10;99.90;;;;;;5046219;28;20222;-90
2021/06/23 12:05:27;;;;;;;15.88;7.72;;;21.70;99.90;;;;;;5059176;28;20202;-90
2021/06/23 12:07:55;;;;;;;10.65;6.60;;;21.60;99.90;;;;;;5052593;28;20317;-91
2021/06/23 12:10:23;;;;;;;13.30;6.82;;;21.50;99.90;;;;;;5061162;28;20242;-92
2021/06/23 12:12:51;;;;;;;14.80;6.72;;;22.00;99.90;;;;;;5076021;28;20205;-91
2021/06/23 12:15:20;;;;;;;15.85;7.65;;;22.60;99.90;;;;;;5066414;28;20202;-92
2021/06/23 12:17:49;;;;;;;14.15;8.45;;;22.60;99.90;;;;;;5057815;28;20223;-92
2021/06/23 12:20:17;;;;;;;12.07;7.97;;;22.30;99.90;;;;;;5046004;28;20234;-90
2021/06/23 12:22:44;;;;;;;12.25;7.78;;;21.90;99.90;;;;;;5058291;28;20305;-90
2021/06/23 12:25:14;;;;;;;15.43;8.07;;;22.30;99.90;;;;;;5051345;28;20555;-92
2021/06/23 12:27:42;;;;;;;11.32;7.47;;;22.50;99.90;;;;;;5048888;28;20313;-89
2021/06/23 12:30:10;;;;;;;13.93;7.72;;;22.40;99.90;;;;;;5049206;28;20214;-91
2021/06/23 12:35:30;;;;;;;11.63;7.63;;;23.10;99.90;;;;;;5045740;28;20210;-91
2021/06/23 12:37:58;;;;;;;12.57;7.72;;;23.10;99.90;;;;;;5052537;28;20249;-89
2021/06/23 12:40:26;;;;;;;15.02;7.38;;;22.00;99.90;;;;;;5060513;28;20210;-89
2021/06/23 12:42:53;;;;;;;12.02;7.90;;;21.80;99.90;;;;;;5060017;28;20289;-88
2021/06/23 12:45:20;;;;;;;14.60;8.40;;;21.20;99.90;;;;;;5056365;28;20878;-88
2021/06/23 12:47:46;;;;;;;14.68;6.95;;;21.20;99.90;;;;;;5046136;28;20410;-89
2021/06/23 12:50:17;;;;;;;13.57;7.20;;;21.30;99.90;;;;;;5051357;28;20204;-90
2021/06/23 12:52:46;;;;;;;10.93;6.45;;;21.00;99.90;;;;;;5059334;28;20206;-91
2021/06/23 12:55:22;;;;;;;14.52;7.75;;;21.30;99.90;;;;;;5053774;28;20249;-89
2021/06/23 12:57:55;;;;;;;16.95;7.55;;;21.20;99.90;;;;;;5053115;28;20226;-90
2021/06/23 13:00:32;;;;;;;12.35;6.72;;;21.40;99.90;;;;;;5047075;28;20206;-87
2021/06/23 13:53:39;;;;;;;12.63;5.85;;;20.60;99.90;;;;;;5058401;28;20208;-89
2021/06/23 13:56:05;;;;;;;11.93;5.68;;;20.70;99.90;;;;;;5047200;28;20215;-90
2021/06/23 13:58:32;;;;;;;13.55;5.45;;;20.70;99.90;;;;;;5040845;28;20236;-89
2021/06/23 14:01:05;;;;;;;13.32;5.78;;;20.70;99.90;;;;;;5047258;28;20282;-89